METAR AND TAF INFORMATION
METAR FOR LESO
ADDS - METARS form results

(1624 UTC 22 April 2018)
Data provider http://aviationweather.gov/adds/metars/
 
METAR text: LESO 221600Z 03003KT 340V060 CAVOK 20/13 Q1015
Conditions at: LESO (SAN SEBASTIAN/FU, ES) observed 1600 UTC 22 April 2018
Temperature: 20.0°C (68°F)
Dewpoint: 13.0°C (55°F) [RH = 64%]
Pressure (altimeter): 29.97 inches Hg (1015.0 mb)
Winds: from the NNE (30 degrees) at 3 MPH (3 knots; 1.6 m/s)
Visibility: 6 or more miles (10+ km)
Ceiling: ceiling and visibility are OK
Clouds: unknown
Weather: no significant weather observed at this time

METAR text: LESO 221530Z 35004KT 330V030 CAVOK 19/12 Q1016
Conditions at: LESO (SAN SEBASTIAN/FU, ES) observed 1530 UTC 22 April 2018
Temperature: 19.0°C (66°F)
Dewpoint: 12.0°C (54°F) [RH = 64%]
Pressure (altimeter): 30.00 inches Hg (1016.0 mb)
Winds: from the N (350 degrees) at 5 MPH (4 knots; 2.1 m/s)
Visibility: 6 or more miles (10+ km)
Ceiling: ceiling and visibility are OK
Clouds: unknown
Weather: no significant weather observed at this time

Forecast for: LESO (SAN SEBASTIAN/FU, ES)
Text: TAF LESO 221100Z 2212/2312 34009KT CAVOK TX24/2214Z TN14/2306Z
Forecast period: 1200 UTC 22 April 2018 to 1200 UTC 23 April 2018
Forecast type: FROM: standard forecast or significant change
Winds: from the NNW (340 degrees) at 10 MPH (9 knots; 4.7 m/s)
Visibility: 6 or more miles (10+ km)
Clouds: not forecast
Weather: no significant weather forecast for this period
Forecast for: LESO (SAN SEBASTIAN/FU, ES)
Text: TAF LESO 221100Z 2212/2312 34009KT CAVOK TX24/2214Z TN14/2306Z
Forecast period: 1200 UTC 22 April 2018 to 1200 UTC 23 April 2018
Forecast type: FROM: standard forecast or significant change
Winds: from the NNW (340 degrees) at 10 MPH (9 knots; 4.7 m/s)
Visibility: 6 or more miles (10+ km)
Clouds: not forecast
Weather: no significant weather forecast for this period
Forecast for: LESO (SAN SEBASTIAN/FU, ES)
Text: TAF LESO 221100Z 2212/2312 34009KT CAVOK TX24/2214Z TN14/2306Z
Forecast period: 1500 UTC 22 April 2018 to 0000 UTC 23 April 2018
Forecast type: TEMPORARY: The following changes expected for less than half the time period
Winds: variable direction winds at 17 MPH (15 knots; 7.8 m/s)
gusting to 29 MPH (25 knots; 13.0 m/s)
Visibility: 1.86 miles (2.99 km)
Clouds: scattered clouds at 3000 feet AGL
scattered clouds at 4000 feet AGL
Weather: SHRA TS  (rain showers, thunderstorm)
Forecast for: LESO (SAN SEBASTIAN/FU, ES)
Text: TAF LESO 221100Z 2212/2312 34009KT CAVOK TX24/2214Z TN14/2306Z
Forecast period: 1500 UTC 22 April 2018 to 0000 UTC 23 April 2018
Forecast type: TEMPORARY: The following changes expected for less than half the time period
Winds: variable direction winds at 17 MPH (15 knots; 7.8 m/s)
gusting to 29 MPH (25 knots; 13.0 m/s)
Visibility: 1.86 miles (2.99 km)
Clouds: scattered clouds at 3000 feet AGL
scattered clouds at 4000 feet AGL
Weather: SHRA TS  (rain showers, thunderstorm)
Forecast for: LESO (SAN SEBASTIAN/FU, ES)
Text: TAF LESO 221100Z 2212/2312 34009KT CAVOK TX24/2214Z TN14/2306Z
Forecast period: 1800 UTC 22 April 2018 to 1200 UTC 23 April 2018
Forecast type: TEMPORARY: The following changes expected for less than half the time period
Visibility: 1.86 miles (2.99 km)
Ceiling: 500 feet AGL
Clouds: broken clouds at 500 feet AGL
broken clouds at 1000 feet AGL
Weather: BR  (mist)
Forecast for: LESO (SAN SEBASTIAN/FU, ES)
Text: TAF LESO 221100Z 2212/2312 34009KT CAVOK TX24/2214Z TN14/2306Z
Forecast period: 1800 UTC 22 April 2018 to 1200 UTC 23 April 2018
Forecast type: TEMPORARY: The following changes expected for less than half the time period
Visibility: 1.86 miles (2.99 km)
Ceiling: 500 feet AGL
Clouds: broken clouds at 500 feet AGL
broken clouds at 1000 feet AGL
Weather: BR  (mist)
Forecast for: LESO (SAN SEBASTIAN/FU, ES)
Text: TAF LESO 221100Z 2212/2312 34009KT CAVOK TX24/2214Z TN14/2306Z
Forecast period: 1800 UTC 22 April 2018 to 1200 UTC 23 April 2018
Forecast type: TEMPORARY: The following changes expected for less than half the time period
Visibility: 0.93 miles (1.50 km)
Ceiling: 200 feet AGL
Clouds: broken clouds at 200 feet AGL
Weather: BCFG  (patches of fog)
Forecast for: LESO (SAN SEBASTIAN/FU, ES)
Text: TAF LESO 221100Z 2212/2312 34009KT CAVOK TX24/2214Z TN14/2306Z
Forecast period: 1800 UTC 22 April 2018 to 1200 UTC 23 April 2018
Forecast type: TEMPORARY: The following changes expected for less than half the time period
Visibility: 0.93 miles (1.50 km)
Ceiling: 200 feet AGL
Clouds: broken clouds at 200 feet AGL
Weather: BCFG  (patches of fog)

 AIRPORT MAP

 RUNWAY INFORMATION
Runway 04 Runway length 5755 ft Runway width 148 ft
Runway elevation 10 ft Runway displaced threshold 0 ft Runway heading 39
Runway 22 Runway length 5755 ft Runway width 148 ft
Runway elevation 15 ft Runway displaced threshold 0 ft Runway heading 219

 AIRPORT FREQUENCIES
Type TWR Name SAN SEBAST Frequency 119.85 MHZ

 AIRPORT NEAR NAVIGATION AIDS
Type NDB-DME Name San Sebastian Frequency 328 KHZ
Type VOR-DME Name San Sebastian Frequency 117900 KHZ



Powered by Virtual Airlines Manager [v2.6.2]